Kalenakliyat 2 — TCBA7 — position and weather

sailwx.info

Track history (hours):
 
Tides and Currents Weather Stations Pressure Air Temp Water Temp Dewpoint Dewpoint Depression Visibility Wind Speed Wind Dir Waves Ship Positions

Kalenakliyat 2

Last reported at 2017-Feb-28 14:29 UTC. Time now 2017-Mar-30 22:35 UTC.
Position N 40°49' E 029°00'.
Warning: this ship's position is 30 days out of date.

Length 72 m; draft 4.4 m.

Type: Cargo ship. MMSI: 271002023.

Date/timePositionNaut miles runAvg speedWind from/ knotsBaromVisibWave heightAir tempDewpointWater temp
2017-Feb-28 14:29N 40°49' E 029°00'8 8.5
2017-Feb-28 13:33N 40°51' E 029°11'4 4.1
2017-Feb-28 12:33N 40°51' E 029°16'0 0.0
2017-Feb-28 11:33N 40°51' E 029°16'0 0.0
2017-Feb-28 10:33N 40°51' E 029°16'0 0.0
2017-Feb-28 09:33N 40°51' E 029°16'0 0.0
2017-Feb-28 08:33N 40°51' E 029°16'0 0.0
2017-Feb-28 07:33N 40°51' E 029°16'0 0.0
2017-Feb-28 06:33N 40°51' E 029°16'0 0.0
2017-Feb-28 05:33N 40°51' E 029°16'1 1.4
2017-Feb-28 04:33N 40°50' E 029°15'0 0.1
2017-Feb-28 03:33N 40°50' E 029°15'1 0.7
2017-Feb-28 02:33N 40°51' E 029°14'9 8.9
2017-Feb-28 01:33N 40°47' E 029°04'9 8.9
2017-Feb-28 00:32N 40°45' E 028°52'4 0.1
2017-Feb-26 12:06N 40°48' E 028°56'5 9.0
2017-Feb-26 11:32N 40°49' E 029°02'9 8.8
2017-Feb-26 10:33N 40°51' E 029°14'2 2.0
2017-Feb-26 09:33N 40°51' E 029°16'0 0.0
2017-Feb-26 08:33N 40°51' E 029°16'0 0.0
2017-Feb-26 07:33N 40°51' E 029°16'0 0.0
2017-Feb-26 06:33N 40°51' E 029°16'0 0.0
2017-Feb-26 05:33N 40°51' E 029°16'1 0.5
2017-Feb-26 04:33N 40°51' E 029°16'6 6.0
2017-Feb-26 03:32N 40°49' E 029°08'6 6.0
2017-Feb-26 02:33N 40°47' E 029°01'6 6.0
2017-Feb-26 01:33N 40°45' E 028°53'  
Track history (hours):
 
Tides and Currents Weather Stations Pressure Air Temp Water Temp Dewpoint Dewpoint Depression Visibility Wind Speed Wind Dir Waves Ship Positions

Kalenakliyat 2

Last reported at 2017-Feb-28 14:29 UTC. Time now 2017-Mar-30 22:35 UTC.
Position N 40°49' E 029°00'.
Warning: this ship's position is 30 days out of date.

Length 72 m; draft 4.4 m.

Type: Cargo ship. MMSI: 271002023.

Date/timePositionNaut miles runAvg speedWind from/ knotsBaromVisibWave heightAir tempDewpointWater temp
2017-Feb-28 14:29N 40°49' E 029°00'8 8.5
2017-Feb-28 13:33N 40°51' E 029°11'4 4.1
2017-Feb-28 12:33N 40°51' E 029°16'0 0.0
2017-Feb-28 11:33N 40°51' E 029°16'0 0.0
2017-Feb-28 10:33N 40°51' E 029°16'0 0.0
2017-Feb-28 09:33N 40°51' E 029°16'0 0.0
2017-Feb-28 08:33N 40°51' E 029°16'0 0.0
2017-Feb-28 07:33N 40°51' E 029°16'0 0.0
2017-Feb-28 06:33N 40°51' E 029°16'0 0.0
2017-Feb-28 05:33N 40°51' E 029°16'1 1.4
2017-Feb-28 04:33N 40°50' E 029°15'0 0.1
2017-Feb-28 03:33N 40°50' E 029°15'1 0.7
2017-Feb-28 02:33N 40°51' E 029°14'9 8.9
2017-Feb-28 01:33N 40°47' E 029°04'9 8.9
2017-Feb-28 00:32N 40°45' E 028°52'4 0.1
2017-Feb-26 12:06N 40°48' E 028°56'5 9.0
2017-Feb-26 11:32N 40°49' E 029°02'9 8.8
2017-Feb-26 10:33N 40°51' E 029°14'2 2.0
2017-Feb-26 09:33N 40°51' E 029°16'0 0.0
2017-Feb-26 08:33N 40°51' E 029°16'0 0.0
2017-Feb-26 07:33N 40°51' E 029°16'0 0.0
2017-Feb-26 06:33N 40°51' E 029°16'0 0.0
2017-Feb-26 05:33N 40°51' E 029°16'1 0.5
2017-Feb-26 04:33N 40°51' E 029°16'6 6.0
2017-Feb-26 03:32N 40°49' E 029°08'6 6.0
2017-Feb-26 02:33N 40°47' E 029°01'6 6.0
2017-Feb-26 01:33N 40°45' E 028°53'  

Dump ship's entire track history